Lafayette, AL

9:52 AM CDT on April 19, 2015 (GMT -0500)
APRSWXNET | | Change Station
CLOSE
Current Station
Personal Weather Station
Location: Five Points, AL
Elevation: 918 ft
Nearby Weather Stations
Active Advisory: Tornado Watch

Elev 918 ft 33.02 °N, 85.35 °W | Updated 26 minutes ago

Mostly Cloudy
Mostly Cloudy
68 °F
Feels Like 68 °F
N
2
Wind Variable Wind from West
Gusts 8.0 mph

Today
High -- | Low -- °F
--% Chance of Precip.
Yesterday
High -- | Low -- °F
Precip. -- in
6:07 AM 7:14 PM
New Moon, 1% visible
Pressure 29.85 in
Visibility 10.0 miles
Clouds Scattered Clouds 600 ft
Mostly Cloudy 1200 ft
Overcast 3100 ft
Dew Point 67 °F
Humidity 98%
Rainfall in
Snow Depth Not available.
UV 2 out of 12
Pollen 4.70 out of 12
Air Quality Not available.
Flu Activity Sporadic
METAR KAUO 191435Z AUTO 19014G18KT 10SM SCT006 BKN012 OVC031 19/18 A2985 RMK AO1 P0001

More Conditions Fewer Conditions

Pressure 29.85 in
Visibility 10.0 miles
Clouds Scattered Clouds 600 ft
Mostly Cloudy 1200 ft
Overcast 3100 ft
Dew Point 67 °F
Humidity 98%
Rainfall in
Snow Depth Not available.
UV 2 out of 12
Pollen 4.70 out of 12
Air Quality Not available.
Flu Activity Sporadic
METAR KAUO 191435Z AUTO 19014G18KT 10SM SCT006 BKN012 OVC031 19/18 A2985 RMK AO1 P0001

More Conditions Fewer Conditions

10-Day Weather Forecast

Almanac

Astronomy

Apr. 19, 2015 Rise Set
Actual Time
Civil Twilight
Nautical Twilight
Astronomical Twilight
Moon
Length of Visible Light
Length of Day
Tomorrow will be .
, % of the Moon is Illuminated

Today's Extremes

State Highs State Lows

Community

WunderPhotos

Upload Photos

1,814,826 photos uploaded!

WunderBlogs® & News

Nearby

Air Quality

  Air Quality AQ Index Pollutant
Not available.

Snow Depth

Station Depth Elevation

Earthquake Activity

City Distance Mag. Time & Date
Minimum magnitude displayed is 2.5.

Coastal Water Temperatures

Place Temperature

Stations

Nearby Weather Stations

Station Location Temp. Windchill Dew Point Humidity Wind Precip. Elev Updated Type
                   
Tornado Watch
Statement as of 10:43 AM EDT on April 19, 2015

Tornado Watch 78 remains in effect until 300 PM EDT for the
following locations


Al
. Alabama counties included are

Barbour Bullock Chambers
Clay Coffee Dale
Elmore Geneva Henry
Houston Lee Macon
Montgomery Pike Randolph
Russell Tallapoosa